Time;durP1;ratioP1;P1;durP2;ratioP2;P2;SDS_P1;SDS_P2;PMS_P1;PMS_P2;Temp;Humidity;BMP_temperature;BMP_pressure;BME280_temperature;BME280_humidity;BME280_pressure;Samples;Min_cycle;Max_cycle;Signal;HPM_P1;HPM_P2
2021/06/26 00:01:55;;;;;;;21.50;9.50;;;;;;;;;;5057582;28;20402;-65
2021/06/26 00:04:20;;;;;;;23.65;11.38;;;;;;;;;;5054399;28;20079;-65
2021/06/26 00:06:46;;;;;;;25.38;12.15;;;;;;;;;;5057222;28;20032;-65
2021/06/26 00:09:12;;;;;;;26.77;11.60;;;;;;;;;;5036366;28;20036;-65
2021/06/26 00:11:37;;;;;;;30.95;12.73;;;;;;;;;;5057871;28;20020;-65
2021/06/26 00:14:03;;;;;;;28.45;13.50;;;;;;;;;;5039399;28;20043;-64
2021/06/26 00:16:29;;;;;;;25.45;12.90;;;;;;;;;;5040192;28;20028;-65
2021/06/26 00:18:55;;;;;;;28.13;12.85;;;;;;;;;;5054255;28;20036;-64
2021/06/26 00:21:23;;;;;;;34.50;15.18;;;;;;;;;;5038570;28;20385;-64
2021/06/26 00:23:51;;;;;;;29.75;14.15;;;;;;;;;;5055778;28;20111;-65
2021/06/26 00:26:19;;;;;;;32.95;13.95;;;;;;;;;;5040029;28;20058;-64
2021/06/26 00:28:45;;;;;;;28.15;13.30;;;;;;;;;;5038922;28;20426;-65
2021/06/26 00:31:13;;;;;;;36.25;14.98;;;;;;;;;;5057956;28;20029;-65
2021/06/26 00:33:42;;;;;;;28.98;13.38;;;;;;;;;;5038027;28;20028;-64
2021/06/26 00:36:07;;;;;;;35.08;14.85;;;;;;;;;;5037802;28;20995;-64
2021/06/26 00:38:33;;;;;;;33.13;15.20;;;;;;;;;;5038506;28;20474;-64
2021/06/26 00:40:58;;;;;;;35.42;16.08;;;;;;;;;;5038915;28;20025;-65
2021/06/26 00:43:26;;;;;;;34.40;16.38;;;;;;;;;;5047781;28;20170;-65
2021/06/26 00:45:56;;;;;;;41.03;19.13;;;;;;;;;;5057031;28;20039;-65
2021/06/26 00:48:21;;;;;;;43.55;18.50;;;;;;;;;;5038199;28;20047;-65
2021/06/26 00:50:48;;;;;;;37.83;17.42;;;;;;;;;;5037990;28;20101;-65
2021/06/26 00:53:14;;;;;;;42.88;18.90;;;;;;;;;;5057222;28;20211;-65
2021/06/26 00:55:51;;;;;;;46.17;18.73;;;;;;;;;;5037901;28;20031;-65
2021/06/26 00:58:16;;;;;;;40.65;17.42;;;;;;;;;;5056844;28;20502;-65
2021/06/26 01:00:42;;;;;;;45.20;19.83;;;;;;;;;;5042119;28;20036;-65
2021/06/26 01:03:07;;;;;;;39.60;18.17;;;;;;;;;;5056032;28;20036;-65
2021/06/26 01:05:33;;;;;;;48.00;20.17;;;;;;;;;;5041626;28;20116;-65
2021/06/26 01:07:58;;;;;;;45.45;20.40;;;;;;;;;;5042130;28;20029;-65
2021/06/26 01:10:24;;;;;;;40.20;19.88;;;;;;;;;;5055942;28;20029;-65
2021/06/26 01:12:50;;;;;;;51.88;20.33;;;;;;;;;;5056349;28;20073;-65
2021/06/26 01:15:16;;;;;;;45.63;20.50;;;;;;;;;;5038937;28;20032;-65
2021/06/26 01:17:42;;;;;;;45.60;19.67;;;;;;;;;;5037644;28;20958;-66
2021/06/26 01:20:09;;;;;;;46.30;20.80;;;;;;;;;;5056592;28;20070;-65
2021/06/26 01:22:41;;;;;;;50.80;20.50;;;;;;;;;;5038695;28;20036;-64
2021/06/26 01:25:07;;;;;;;47.60;21.38;;;;;;;;;;5033950;28;20032;-65
2021/06/26 01:27:32;;;;;;;47.10;20.38;;;;;;;;;;5056335;28;20029;-65
2021/06/26 01:30:00;;;;;;;46.35;18.15;;;;;;;;;;5056145;28;20032;-63
2021/06/26 01:32:26;;;;;;;44.67;19.45;;;;;;;;;;5055668;28;20111;-64
2021/06/26 01:34:51;;;;;;;43.53;19.23;;;;;;;;;;5039890;28;22181;-64
2021/06/26 01:37:17;;;;;;;43.83;18.10;;;;;;;;;;5039931;28;20077;-65
2021/06/26 01:39:43;;;;;;;44.15;18.13;;;;;;;;;;5038892;28;20042;-64
2021/06/26 01:42:09;;;;;;;45.08;18.85;;;;;;;;;;5055964;28;20047;-64
2021/06/26 01:44:34;;;;;;;40.50;18.63;;;;;;;;;;5057619;28;20030;-64
2021/06/26 01:50:36;;;;;;;40.60;17.52;;;;;;;;;;5059714;28;20050;-65
2021/06/26 01:53:01;;;;;;;40.38;17.55;;;;;;;;;;5059286;28;20743;-64
2021/06/26 01:55:28;;;;;;;46.67;19.88;;;;;;;;;;5057891;28;20048;-64
2021/06/26 01:57:54;;;;;;;42.50;18.83;;;;;;;;;;5059131;28;20024;-65
2021/06/26 02:00:21;;;;;;;42.42;18.98;;;;;;;;;;5041959;28;22094;-64
2021/06/26 02:02:47;;;;;;;40.58;19.00;;;;;;;;;;5044621;28;20077;-64
2021/06/26 02:05:14;;;;;;;43.17;19.45;;;;;;;;;;5044573;28;20055;-65
2021/06/26 02:07:40;;;;;;;44.30;19.20;;;;;;;;;;5058473;28;20028;-65
2021/06/26 02:10:06;;;;;;;41.25;19.33;;;;;;;;;;5030102;28;20418;-64
2021/06/26 02:12:32;;;;;;;37.67;17.95;;;;;;;;;;5043837;28;20064;-64
2021/06/26 02:14:58;;;;;;;41.30;18.67;;;;;;;;;;5026502;28;20116;-64
2021/06/26 02:17:24;;;;;;;37.35;17.55;;;;;;;;;;5060470;28;20916;-64
2021/06/26 02:19:52;;;;;;;41.55;18.33;;;;;;;;;;5043087;28;20036;-64
2021/06/26 02:22:17;;;;;;;39.85;17.98;;;;;;;;;;5042414;28;20051;-64
2021/06/26 02:24:45;;;;;;;38.63;17.17;;;;;;;;;;5057447;28;20032;-65
2021/06/26 02:27:13;;;;;;;47.75;19.70;;;;;;;;;;5057457;28;20024;-64
2021/06/26 02:29:41;;;;;;;43.63;18.73;;;;;;;;;;5026601;28;20801;-64
2021/06/26 02:32:07;;;;;;;45.90;19.10;;;;;;;;;;5028143;28;20032;-64
2021/06/26 02:34:33;;;;;;;42.67;19.27;;;;;;;;;;5059326;28;20050;-64
2021/06/26 02:36:59;;;;;;;42.97;18.38;;;;;;;;;;5057522;28;20041;-64
2021/06/26 02:39:24;;;;;;;44.60;18.63;;;;;;;;;;5032752;28;20035;-64
2021/06/26 02:41:50;;;;;;;45.65;21.10;;;;;;;;;;5043322;28;20059;-64
2021/06/26 02:44:16;;;;;;;44.95;19.85;;;;;;;;;;5059351;28;20044;-65
2021/06/26 02:46:44;;;;;;;46.47;19.88;;;;;;;;;;5044305;28;20738;-66
2021/06/26 02:49:09;;;;;;;47.08;21.42;;;;;;;;;;5040029;28;20024;-66
2021/06/26 02:51:35;;;;;;;47.95;21.13;;;;;;;;;;5039986;28;20037;-65
2021/06/26 02:54:03;;;;;;;58.35;21.77;;;;;;;;;;5041073;28;20035;-64
2021/06/26 02:56:28;;;;;;;45.55;20.60;;;;;;;;;;5059034;28;20047;-66
2021/06/26 02:58:54;;;;;;;56.35;22.05;;;;;;;;;;5040508;28;20134;-65
2021/06/26 03:01:19;;;;;;;54.75;21.85;;;;;;;;;;5044901;28;20032;-65
2021/06/26 03:03:45;;;;;;;51.42;21.95;;;;;;;;;;5048394;28;20036;-65
2021/06/26 03:06:10;;;;;;;52.42;22.48;;;;;;;;;;5039818;28;20454;-65
2021/06/26 03:08:36;;;;;;;51.83;23.08;;;;;;;;;;5031657;28;20639;-65
2021/06/26 03:11:03;;;;;;;51.15;22.15;;;;;;;;;;5044357;28;20061;-64
2021/06/26 03:13:30;;;;;;;54.13;22.02;;;;;;;;;;5058564;28;20936;-65
2021/06/26 03:15:56;;;;;;;51.25;22.60;;;;;;;;;;5058320;28;20041;-64
2021/06/26 03:18:21;;;;;;;47.72;20.73;;;;;;;;;;5026716;28;20073;-65
2021/06/26 03:20:47;;;;;;;45.67;20.90;;;;;;;;;;5058716;28;20119;-65
2021/06/26 03:23:13;;;;;;;44.38;21.70;;;;;;;;;;5057347;28;20044;-65
2021/06/26 03:25:38;;;;;;;54.38;22.45;;;;;;;;;;5058281;28;20032;-65
2021/06/26 03:28:05;;;;;;;50.40;21.40;;;;;;;;;;5058004;28;20740;-65
2021/06/26 03:30:30;;;;;;;47.22;22.15;;;;;;;;;;5040673;28;20060;-64
2021/06/26 03:32:56;;;;;;;46.60;21.05;;;;;;;;;;5042888;28;20039;-64
2021/06/26 03:35:21;;;;;;;53.35;21.05;;;;;;;;;;5031285;28;20063;-65
2021/06/26 03:37:47;;;;;;;50.85;22.40;;;;;;;;;;5041893;28;20133;-65
2021/06/26 03:40:13;;;;;;;48.13;21.63;;;;;;;;;;5057772;28;20140;-66
2021/06/26 03:42:39;;;;;;;42.10;20.08;;;;;;;;;;5039862;28;20079;-65
2021/06/26 03:45:05;;;;;;;40.10;18.98;;;;;;;;;;5044214;28;20027;-64
2021/06/26 03:47:31;;;;;;;41.88;18.50;;;;;;;;;;5048268;28;20020;-65
2021/06/26 03:49:57;;;;;;;48.42;19.52;;;;;;;;;;5040820;28;20498;-65
2021/06/26 03:52:23;;;;;;;37.70;19.17;;;;;;;;;;5043675;28;20024;-65
2021/06/26 03:54:49;;;;;;;45.65;20.48;;;;;;;;;;5026464;28;20024;-65
2021/06/26 03:57:17;;;;;;;39.33;19.17;;;;;;;;;;5042941;28;20032;-64
2021/06/26 03:59:43;;;;;;;42.55;18.00;;;;;;;;;;5044065;28;20017;-65
2021/06/26 04:02:08;;;;;;;43.88;18.60;;;;;;;;;;5046270;28;21932;-65
2021/06/26 04:04:35;;;;;;;41.55;19.27;;;;;;;;;;5057285;28;20046;-65
2021/06/26 04:07:01;;;;;;;43.55;19.55;;;;;;;;;;5039390;28;20854;-65
2021/06/26 04:09:26;;;;;;;43.85;20.17;;;;;;;;;;5055675;28;20030;-65
2021/06/26 04:11:51;;;;;;;40.78;18.60;;;;;;;;;;5040636;28;20375;-65
2021/06/26 04:14:17;;;;;;;38.53;18.50;;;;;;;;;;5023753;28;20036;-64
2021/06/26 04:16:46;;;;;;;41.08;19.80;;;;;;;;;;5023197;28;20035;-67
2021/06/26 04:19:14;;;;;;;42.28;21.67;;;;;;;;;;5038398;28;20024;-65
2021/06/26 04:21:39;;;;;;;42.95;20.70;;;;;;;;;;5043340;28;20036;-65
2021/06/26 04:24:05;;;;;;;46.30;19.42;;;;;;;;;;5057916;28;20029;-65
2021/06/26 04:26:33;;;;;;;45.17;19.58;;;;;;;;;;5040379;28;20095;-65
2021/06/26 04:28:59;;;;;;;42.85;20.45;;;;;;;;;;5056121;28;20429;-65
2021/06/26 04:31:25;;;;;;;36.28;18.70;;;;;;;;;;5057645;28;20157;-64
2021/06/26 04:33:53;;;;;;;41.45;21.02;;;;;;;;;;5055413;28;20028;-66
2021/06/26 04:36:19;;;;;;;54.60;22.02;;;;;;;;;;5043437;28;20076;-65
2021/06/26 04:38:45;;;;;;;43.95;21.33;;;;;;;;;;5020472;28;20127;-64
2021/06/26 04:41:11;;;;;;;46.33;22.23;;;;;;;;;;5039219;28;20042;-64
2021/06/26 04:43:37;;;;;;;37.63;20.48;;;;;;;;;;5021594;28;20044;-65
2021/06/26 04:46:08;;;;;;;38.92;20.05;;;;;;;;;;5056977;28;20092;-66
2021/06/26 04:48:36;;;;;;;38.20;19.20;;;;;;;;;;5037851;28;20028;-65
2021/06/26 04:51:03;;;;;;;41.40;19.67;;;;;;;;;;5056615;28;20024;-64
2021/06/26 04:53:28;;;;;;;36.13;18.95;;;;;;;;;;5057550;28;20036;-63
2021/06/26 04:55:54;;;;;;;34.72;17.77;;;;;;;;;;5039613;28;20110;-64
2021/06/26 04:58:21;;;;;;;31.10;16.70;;;;;;;;;;5056728;28;20451;-65
2021/06/26 05:00:50;;;;;;;26.85;15.70;;;;;;;;;;5055801;28;20383;-64
2021/06/26 05:03:15;;;;;;;24.33;13.10;;;;;;;;;;5036805;28;20097;-66
2021/06/26 05:05:41;;;;;;;20.88;11.85;;;;;;;;;;5055776;28;20024;-65
2021/06/26 05:08:07;;;;;;;21.25;11.70;;;;;;;;;;5056195;28;20055;-64
2021/06/26 05:10:32;;;;;;;18.38;10.70;;;;;;;;;;5039848;28;20036;-65
2021/06/26 05:12:58;;;;;;;16.55;9.60;;;;;;;;;;5055970;28;20023;-65
2021/06/26 05:15:24;;;;;;;15.90;9.23;;;;;;;;;;5057618;28;20077;-63
2021/06/26 05:17:52;;;;;;;19.75;10.77;;;;;;;;;;5056183;28;20563;-65
2021/06/26 05:20:18;;;;;;;19.90;11.30;;;;;;;;;;5056051;28;20039;-64
2021/06/26 05:22:43;;;;;;;20.70;12.05;;;;;;;;;;5055873;28;20622;-63
2021/06/26 05:25:09;;;;;;;23.35;11.07;;;;;;;;;;5024676;28;21899;-64
2021/06/26 05:27:35;;;;;;;21.50;11.07;;;;;;;;;;5056469;28;20029;-63
2021/06/26 05:30:00;;;;;;;17.92;10.77;;;;;;;;;;5055151;28;21028;-64
2021/06/26 05:32:26;;;;;;;20.27;10.75;;;;;;;;;;5038514;28;20035;-64
2021/06/26 05:34:52;;;;;;;20.38;10.20;;;;;;;;;;5056202;28;21526;-65
2021/06/26 05:37:18;;;;;;;16.65;9.43;;;;;;;;;;5055454;28;21828;-63
2021/06/26 05:39:46;;;;;;;18.83;10.88;;;;;;;;;;5056339;28;20051;-64
2021/06/26 05:42:12;;;;;;;20.40;11.43;;;;;;;;;;5054849;28;20040;-64
2021/06/26 05:44:37;;;;;;;22.00;11.07;;;;;;;;;;5037731;28;20036;-65
2021/06/26 05:47:03;;;;;;;23.85;12.35;;;;;;;;;;5056721;28;20090;-65
2021/06/26 05:49:29;;;;;;;20.17;12.15;;;;;;;;;;5037169;28;20028;-65
2021/06/26 05:51:55;;;;;;;25.65;13.82;;;;;;;;;;5039311;28;20099;-65
2021/06/26 05:54:21;;;;;;;27.17;13.27;;;;;;;;;;5055624;28;20044;-65
2021/06/26 05:56:47;;;;;;;25.95;13.73;;;;;;;;;;5028814;28;21014;-65
2021/06/26 05:59:13;;;;;;;25.70;12.82;;;;;;;;;;5056561;28;20059;-65
2021/06/26 06:01:39;;;;;;;22.80;13.88;;;;;;;;;;5037719;28;20025;-65
2021/06/26 06:04:10;;;;;;;28.63;14.25;;;;;;;;;;5040711;28;20444;-65
2021/06/26 06:06:37;;;;;;;23.25;13.30;;;;;;;;;;5054804;28;20024;-65
2021/06/26 06:09:04;;;;;;;23.05;13.35;;;;;;;;;;5054810;28;20066;-67
2021/06/26 06:11:30;;;;;;;21.23;12.98;;;;;;;;;;5052828;28;20173;-65
2021/06/26 06:13:56;;;;;;;24.30;13.65;;;;;;;;;;5055666;28;20029;-66
2021/06/26 06:16:23;;;;;;;25.10;13.55;;;;;;;;;;5055758;28;20032;-66
2021/06/26 06:18:49;;;;;;;22.60;12.77;;;;;;;;;;5037272;28;20034;-66
2021/06/26 06:21:15;;;;;;;24.33;14.00;;;;;;;;;;5037389;28;20028;-65
2021/06/26 06:23:40;;;;;;;29.77;14.68;;;;;;;;;;5030092;28;20032;-65
2021/06/26 06:26:06;;;;;;;25.40;14.93;;;;;;;;;;5054245;28;20502;-65
2021/06/26 06:28:31;;;;;;;25.20;13.77;;;;;;;;;;5039398;28;20111;-66
2021/06/26 06:30:57;;;;;;;24.67;13.90;;;;;;;;;;5043523;28;20064;-66
2021/06/26 06:33:23;;;;;;;25.00;14.65;;;;;;;;;;5042376;28;20142;-65
2021/06/26 06:35:48;;;;;;;25.67;13.57;;;;;;;;;;5041476;28;20483;-65
2021/06/26 06:38:15;;;;;;;24.20;14.10;;;;;;;;;;5055768;28;20120;-66
2021/06/26 06:40:44;;;;;;;23.48;14.73;;;;;;;;;;5058147;28;20143;-66
2021/06/26 06:43:09;;;;;;;24.23;14.85;;;;;;;;;;5030023;28;20041;-66
2021/06/26 06:45:35;;;;;;;21.65;14.32;;;;;;;;;;5017374;28;20021;-66
2021/06/26 06:48:01;;;;;;;23.15;13.80;;;;;;;;;;5016408;28;20037;-66
2021/06/26 06:50:29;;;;;;;21.33;14.30;;;;;;;;;;5017170;28;20038;-66
2021/06/26 06:52:56;;;;;;;20.75;13.70;;;;;;;;;;5018328;28;20120;-67
2021/06/26 06:55:22;;;;;;;20.83;13.68;;;;;;;;;;5017990;28;20156;-67
2021/06/26 06:57:50;;;;;;;23.83;14.60;;;;;;;;;;5016607;28;20547;-66
2021/06/26 07:00:15;;;;;;;21.00;14.45;;;;;;;;;;5018062;28;20770;-66
2021/06/26 07:02:41;;;;;;;25.38;13.98;;;;;;;;;;5017460;28;20035;-67
2021/06/26 07:05:07;;;;;;;22.23;12.40;;;;;;;;;;5002850;28;20037;-66
2021/06/26 07:07:32;;;;;;;18.40;11.55;;;;;;;;;;5006056;28;20033;-66
2021/06/26 07:09:58;;;;;;;18.98;12.00;;;;;;;;;;5032228;28;20551;-67
2021/06/26 07:12:24;;;;;;;19.90;12.68;;;;;;;;;;5017037;28;20567;-66
2021/06/26 07:14:49;;;;;;;15.65;11.30;;;;;;;;;;5016934;28;20575;-66
2021/06/26 07:17:15;;;;;;;18.20;11.65;;;;;;;;;;5018524;28;20029;-67
2021/06/26 07:19:40;;;;;;;15.50;10.68;;;;;;;;;;5018150;28;20106;-67
2021/06/26 07:22:06;;;;;;;18.55;11.23;;;;;;;;;;5015380;28;22244;-67
2021/06/26 07:24:31;;;;;;;17.77;11.75;;;;;;;;;;5014531;28;20029;-66
2021/06/26 07:26:57;;;;;;;18.25;11.65;;;;;;;;;;5012661;28;20044;-66
2021/06/26 07:29:23;;;;;;;17.33;11.27;;;;;;;;;;5010715;28;22206;-65
2021/06/26 07:31:49;;;;;;;20.58;11.10;;;;;;;;;;5013444;28;20152;-66
2021/06/26 07:34:14;;;;;;;15.20;9.30;;;;;;;;;;5010580;28;20025;-66
2021/06/26 07:36:40;;;;;;;14.93;9.23;;;;;;;;;;5011323;28;20033;-66
2021/06/26 07:39:06;;;;;;;16.85;9.90;;;;;;;;;;5015418;28;20123;-66
2021/06/26 07:41:32;;;;;;;19.20;10.38;;;;;;;;;;5016215;28;20168;-66
2021/06/26 07:47:49;;;;;;;19.42;10.68;;;;;;;;;;5029669;28;20069;-66
2021/06/26 07:50:26;;;;;;;14.65;10.05;;;;;;;;;;5030397;28;20040;-67
2021/06/26 07:52:52;;;;;;;16.42;9.43;;;;;;;;;;5032976;28;20157;-66
2021/06/26 07:58:56;;;;;;;;;;;;;;;;;;5032763;28;20054;-66
2021/06/26 08:01:24;;;;;;;13.90;9.50;;;;;;;;;;5037037;28;19917;-66
2021/06/26 08:03:50;;;;;;;15.02;9.68;;;;;;;;;;5033064;28;20032;-67
2021/06/26 08:06:16;;;;;;;14.10;9.40;;;;;;;;;;5029602;28;20025;-67
2021/06/26 08:08:41;;;;;;;15.10;9.43;;;;;;;;;;5031640;28;20113;-67
2021/06/26 08:11:07;;;;;;;15.55;9.60;;;;;;;;;;5032140;28;20675;-67
2021/06/26 08:13:33;;;;;;;15.63;8.52;;;;;;;;;;5027002;28;20033;-67
2021/06/26 08:15:59;;;;;;;14.10;8.98;;;;;;;;;;5016030;28;20103;-66
2021/06/26 08:18:25;;;;;;;14.13;9.63;;;;;;;;;;5028130;28;20086;-67
2021/06/26 08:20:50;;;;;;;14.20;9.38;;;;;;;;;;5021158;28;20123;-67
2021/06/26 08:23:18;;;;;;;14.48;8.40;;;;;;;;;;5036388;28;20898;-67
2021/06/26 08:25:44;;;;;;;13.43;9.00;;;;;;;;;;5035798;28;20041;-67
2021/06/26 08:28:10;;;;;;;15.32;8.98;;;;;;;;;;5036420;28;20123;-67
2021/06/26 08:30:36;;;;;;;12.68;8.88;;;;;;;;;;5035605;28;20033;-67
2021/06/26 08:33:02;;;;;;;11.52;8.43;;;;;;;;;;5034391;28;20035;-67
2021/06/26 08:35:27;;;;;;;17.20;9.15;;;;;;;;;;5037152;28;20487;-67
2021/06/26 08:37:53;;;;;;;20.35;8.23;;;;;;;;;;5037920;28;20037;-67
2021/06/26 08:40:20;;;;;;;11.32;7.93;;;;;;;;;;5037304;28;20044;-67
2021/06/26 08:42:46;;;;;;;12.00;9.30;;;;;;;;;;5050288;28;20163;-66
2021/06/26 08:45:17;;;;;;;12.02;8.55;;;;;;;;;;5055298;28;20104;-67
2021/06/26 08:47:49;;;;;;;13.02;8.30;;;;;;;;;;5053544;28;20109;-66
2021/06/26 08:50:16;;;;;;;13.05;8.98;;;;;;;;;;5042065;28;20048;-67
2021/06/26 08:52:42;;;;;;;14.38;9.45;;;;;;;;;;5054915;28;20581;-66
2021/06/26 08:55:07;;;;;;;11.77;8.38;;;;;;;;;;5056155;28;20029;-66
2021/06/26 08:57:36;;;;;;;13.07;9.15;;;;;;;;;;5037390;28;20113;-67
2021/06/26 09:00:04;;;;;;;10.80;8.95;;;;;;;;;;5055935;28;20059;-66
2021/06/26 09:02:30;;;;;;;14.93;8.70;;;;;;;;;;5042847;28;20027;-67
2021/06/26 09:04:56;;;;;;;14.02;8.40;;;;;;;;;;5055360;28;20113;-66
2021/06/26 09:07:28;;;;;;;13.40;8.10;;;;;;;;;;5054960;28;20036;-67
2021/06/26 09:09:56;;;;;;;12.48;8.48;;;;;;;;;;5044356;28;20028;-66
2021/06/26 09:12:22;;;;;;;11.55;8.18;;;;;;;;;;5041760;28;20046;-66
2021/06/26 09:14:57;;;;;;;12.27;8.18;;;;;;;;;;5041244;28;20538;-66
2021/06/26 09:17:43;;;;;;;11.32;7.50;;;;;;;;;;5023471;28;20106;-67
2021/06/26 09:20:10;;;;;;;10.88;7.57;;;;;;;;;;5056776;28;20040;-67
2021/06/26 09:22:46;;;;;;;12.10;7.65;;;;;;;;;;5052546;28;20032;-67
2021/06/26 09:25:23;;;;;;;11.82;8.25;;;;;;;;;;5055933;28;20032;-66
2021/06/26 09:27:49;;;;;;;14.68;8.23;;;;;;;;;;5055525;28;20020;-65
2021/06/26 09:30:14;;;;;;;13.25;8.38;;;;;;;;;;5030651;28;20537;-66
2021/06/26 09:32:43;;;;;;;12.80;8.43;;;;;;;;;;5055911;28;20127;-66
2021/06/26 09:35:16;;;;;;;36.25;9.60;;;;;;;;;;5054150;28;20028;-66
2021/06/26 09:37:42;;;;;;;15.07;8.38;;;;;;;;;;5056150;28;20032;-65
2021/06/26 09:40:08;;;;;;;12.68;8.00;;;;;;;;;;5056553;28;20510;-65
2021/06/26 09:42:39;;;;;;;10.77;7.65;;;;;;;;;;5053446;28;20648;-67
2021/06/26 09:45:20;;;;;;;11.15;7.68;;;;;;;;;;5056428;28;20040;-65
2021/06/26 09:47:46;;;;;;;12.27;6.95;;;;;;;;;;5043319;28;20032;-66
2021/06/26 09:53:18;;;;;;;11.00;5.72;;;;;;;;;;5054016;28;20046;-66
2021/06/26 09:55:52;;;;;;;8.52;6.70;;;;;;;;;;5054883;28;20033;-66
2021/06/26 09:58:18;;;;;;;10.38;7.15;;;;;;;;;;5039737;28;20625;-65
2021/06/26 10:00:44;;;;;;;11.60;7.43;;;;;;;;;;5036873;28;20039;-66
2021/06/26 10:03:10;;;;;;;10.98;7.25;;;;;;;;;;5051916;28;20036;-67
2021/06/26 10:05:39;;;;;;;10.23;7.22;;;;;;;;;;5052628;28;20028;-67
2021/06/26 10:08:10;;;;;;;12.05;7.60;;;;;;;;;;5039861;28;20093;-67
2021/06/26 10:10:36;;;;;;;11.30;8.27;;;;;;;;;;5043551;28;20028;-66
2021/06/26 10:13:02;;;;;;;11.40;8.50;;;;;;;;;;5058782;28;20032;-66
2021/06/26 10:15:33;;;;;;;15.23;8.10;;;;;;;;;;5041906;28;20023;-67
2021/06/26 10:17:59;;;;;;;10.40;6.60;;;;;;;;;;5057590;28;20103;-67
2021/06/26 10:20:26;;;;;;;10.70;7.03;;;;;;;;;;5057666;28;20040;-66
2021/06/26 10:23:02;;;;;;;13.13;6.80;;;;;;;;;;5043112;28;20032;-66
2021/06/26 10:25:32;;;;;;;13.50;8.30;;;;;;;;;;5055678;28;20031;-66
2021/06/26 10:28:03;;;;;;;9.95;7.35;;;;;;;;;;5042102;28;20455;-67
2021/06/26 10:30:29;;;;;;;8.48;6.25;;;;;;;;;;5049724;28;20028;-66
2021/06/26 10:32:56;;;;;;;12.00;7.65;;;;;;;;;;5040361;28;20059;-67
2021/06/26 10:35:23;;;;;;;12.55;8.05;;;;;;;;;;5020442;28;20208;-66
2021/06/26 10:37:59;;;;;;;12.40;8.98;;;;;;;;;;5044605;28;20045;-66
2021/06/26 10:40:33;;;;;;;11.52;8.48;;;;;;;;;;5049838;28;20155;-67
2021/06/26 10:46:15;;;;;;;14.43;8.35;;;;;;;;;;5038518;28;20031;-66
2021/06/26 10:49:05;;;;;;;11.43;8.27;;;;;;;;;;5055739;28;20029;-66
2021/06/26 10:51:30;;;;;;;11.07;7.93;;;;;;;;;;5051424;28;20781;-66
2021/06/26 10:53:56;;;;;;;11.73;8.37;;;;;;;;;;5058400;28;20138;-65
2021/06/26 10:56:30;;;;;;;10.98;7.40;;;;;;;;;;5059477;28;20362;-67
2021/06/26 10:59:07;;;;;;;11.95;8.23;;;;;;;;;;5039715;28;20028;-67
2021/06/26 11:01:33;;;;;;;16.00;9.77;;;;;;;;;;5058019;28;20132;-66
2021/06/26 11:04:20;;;;;;;17.23;9.02;;;;;;;;;;5041789;28;20040;-67
2021/06/26 11:07:05;;;;;;;10.75;7.93;;;;;;;;;;5056963;28;20043;-66
2021/06/26 11:09:50;;;;;;;14.52;7.93;;;;;;;;;;5041893;28;20038;-65
2021/06/26 11:12:33;;;;;;;;;;;;;;;;;;5062665;28;21196;-66
2021/06/26 11:15:28;;;;;;;13.97;8.90;;;;;;;;;;5060551;28;19973;-66
2021/06/26 11:18:16;;;;;;;15.52;8.35;;;;;;;;;;5048480;28;20378;-65
2021/06/26 11:21:04;;;;;;;11.18;7.57;;;;;;;;;;5058725;28;20089;-65
2021/06/26 11:23:49;;;;;;;13.30;8.13;;;;;;;;;;5057841;28;20047;-66
2021/06/26 11:26:43;;;;;;;11.82;8.27;;;;;;;;;;5060636;28;21065;-67
2021/06/26 11:33:04;;;;;;;15.30;9.18;;;;;;;;;;5057030;28;20721;-65
2021/06/26 11:35:48;;;;;;;14.32;8.55;;;;;;;;;;5056565;28;20095;-66
2021/06/26 11:41:59;;;;;;;13.65;8.48;;;;;;;;;;5057596;28;20074;-66
2021/06/26 11:44:45;;;;;;;;;;;;;;;;;;5057735;28;20047;-67
2021/06/26 11:47:29;;;;;;;18.13;9.50;;;;;;;;;;5042673;28;19927;-65
2021/06/26 11:50:41;;;;;;;14.07;10.15;;;;;;;;;;5056841;28;20039;-66
2021/06/26 11:53:26;;;;;;;14.02;9.82;;;;;;;;;;5041994;28;20108;-67
2021/06/26 11:56:14;;;;;;;20.27;11.05;;;;;;;;;;5043202;28;20089;-65
2021/06/26 11:58:59;;;;;;;13.73;9.57;;;;;;;;;;5059605;28;20075;-67
2021/06/26 12:02:00;;;;;;;13.07;9.05;;;;;;;;;;5056534;28;20114;-66
2021/06/26 12:04:44;;;;;;;13.80;8.48;;;;;;;;;;5055258;28;20356;-66
2021/06/26 12:07:33;;;;;;;14.10;9.27;;;;;;;;;;5056606;28;20043;-66
2021/06/26 12:10:20;;;;;;;14.32;10.23;;;;;;;;;;5057691;28;20047;-67
2021/06/26 12:13:04;;;;;;;18.80;10.77;;;;;;;;;;5048789;28;20182;-66
2021/06/26 12:16:22;;;;;;;15.10;11.25;;;;;;;;;;5042051;28;20042;-66
2021/06/26 12:19:36;;;;;;;13.13;10.07;;;;;;;;;;5059642;28;20140;-64
2021/06/26 12:22:22;;;;;;;16.10;11.63;;;;;;;;;;5042233;28;20097;-66
2021/06/26 12:25:10;;;;;;;18.67;11.55;;;;;;;;;;5044619;28;20592;-66
2021/06/26 12:27:59;;;;;;;17.45;11.25;;;;;;;;;;5057767;28;20052;-65
2021/06/26 12:30:46;;;;;;;18.23;10.95;;;;;;;;;;5056760;28;20067;-65
2021/06/26 12:33:30;;;;;;;18.35;10.07;;;;;;;;;;5055327;28;20051;-64
2021/06/26 12:36:15;;;;;;;15.27;11.07;;;;;;;;;;5041084;28;21066;-64
2021/06/26 12:42:55;;;;;;;17.25;12.23;;;;;;;;;;5060006;28;20635;-66
2021/06/26 12:45:52;;;;;;;19.67;12.98;;;;;;;;;;5059851;28;20039;-65
2021/06/26 12:48:49;;;;;;;20.77;12.45;;;;;;;;;;5054910;28;21724;-64
2021/06/26 12:51:47;;;;;;;23.70;13.02;;;;;;;;;;5046941;28;20051;-67
2021/06/26 12:54:31;;;;;;;20.38;12.27;;;;;;;;;;5043908;28;20051;-67
2021/06/26 12:57:15;;;;;;;19.42;11.93;;;;;;;;;;5057894;28;20150;-65
2021/06/26 13:03:34;;;;;;;18.77;12.93;;;;;;;;;;5054174;28;20078;-66
2021/06/26 13:06:07;;;;;;;20.38;12.43;;;;;;;;;;5055768;28;20738;-66
2021/06/26 13:08:45;;;;;;;19.98;12.63;;;;;;;;;;5054203;28;20024;-66
2021/06/26 13:11:12;;;;;;;20.88;13.32;;;;;;;;;;5036387;28;20055;-66
2021/06/26 13:13:38;;;;;;;20.40;13.68;;;;;;;;;;5052124;28;20032;-66
2021/06/26 13:16:04;;;;;;;17.45;13.38;;;;;;;;;;5055338;28;21241;-67
2021/06/26 13:18:29;;;;;;;17.33;12.75;;;;;;;;;;5029405;28;20115;-68
2021/06/26 13:20:55;;;;;;;20.00;13.57;;;;;;;;;;5038265;28;20040;-66
2021/06/26 13:23:21;;;;;;;16.73;12.93;;;;;;;;;;5055220;28;20024;-66
2021/06/26 13:28:52;;;;;;;19.35;12.88;;;;;;;;;;5054680;28;20052;-67
2021/06/26 13:31:17;;;;;;;15.40;12.23;;;;;;;;;;5054436;28;20119;-65
2021/06/26 13:33:43;;;;;;;17.63;13.50;;;;;;;;;;5037402;28;20082;-65
2021/06/26 13:36:12;;;;;;;23.95;13.95;;;;;;;;;;5054537;28;20475;-66
2021/06/26 13:38:37;;;;;;;20.52;13.60;;;;;;;;;;5052709;28;21972;-67
2021/06/26 13:41:03;;;;;;;20.77;13.38;;;;;;;;;;5043968;28;20043;-67
2021/06/26 13:43:29;;;;;;;19.05;12.75;;;;;;;;;;5038078;28;20109;-66
2021/06/26 13:45:58;;;;;;;16.33;11.32;;;;;;;;;;5059675;28;20063;-66
2021/06/26 13:48:24;;;;;;;23.52;12.20;;;;;;;;;;5043568;28;20051;-65
2021/06/26 13:50:51;;;;;;;19.83;12.25;;;;;;;;;;5040668;28;20078;-65
2021/06/26 13:53:17;;;;;;;18.63;12.52;;;;;;;;;;5058507;28;20036;-64
2021/06/26 13:55:50;;;;;;;15.80;11.73;;;;;;;;;;5030061;28;20044;-65
2021/06/26 13:58:15;;;;;;;;;;;;;;;;;;5044989;28;20570;-66
2021/06/26 14:00:41;;;;;;;14.23;11.18;;;;;;;;;;5045459;28;19962;-65
2021/06/26 14:03:09;;;;;;;17.10;11.52;;;;;;;;;;5041263;28;20063;-67
2021/06/26 14:05:35;;;;;;;17.27;12.15;;;;;;;;;;5043585;28;20021;-64
2021/06/26 14:08:00;;;;;;;21.45;12.57;;;;;;;;;;5058877;28;20028;-64
2021/06/26 14:10:29;;;;;;;18.92;12.85;;;;;;;;;;5050084;28;20036;-66
2021/06/26 14:12:54;;;;;;;24.15;14.30;;;;;;;;;;5059245;28;20016;-63
2021/06/26 14:15:20;;;;;;;19.52;12.45;;;;;;;;;;5041732;28;20494;-67
2021/06/26 14:17:46;;;;;;;17.85;12.43;;;;;;;;;;5041176;28;20495;-64
2021/06/26 14:20:11;;;;;;;18.95;12.90;;;;;;;;;;5021765;28;20455;-65
2021/06/26 14:22:37;;;;;;;14.63;10.82;;;;;;;;;;5031896;28;20155;-65
2021/06/26 14:25:03;;;;;;;19.17;11.80;;;;;;;;;;5023575;28;20032;-66
2021/06/26 14:27:32;;;;;;;14.63;11.23;;;;;;;;;;5051737;28;20028;-67
2021/06/26 14:29:57;;;;;;;16.23;11.35;;;;;;;;;;5041798;28;20058;-65
2021/06/26 14:32:23;;;;;;;14.88;10.65;;;;;;;;;;5042536;28;20114;-65
2021/06/26 14:34:48;;;;;;;15.65;10.88;;;;;;;;;;5037126;28;20039;-66
2021/06/26 14:37:14;;;;;;;16.75;10.88;;;;;;;;;;5023745;28;20039;-66
2021/06/26 14:39:47;;;;;;;14.32;9.80;;;;;;;;;;5027014;28;20551;-66
2021/06/26 14:42:13;;;;;;;13.32;10.75;;;;;;;;;;5016984;28;20139;-66
2021/06/26 14:44:38;;;;;;;12.95;10.27;;;;;;;;;;5030275;28;20387;-66
2021/06/26 14:47:23;;;;;;;15.68;11.13;;;;;;;;;;5032491;28;20031;-66
2021/06/26 14:49:51;;;;;;;13.77;9.98;;;;;;;;;;5031311;28;20036;-66
2021/06/26 14:55:54;;;;;;;13.13;9.85;;;;;;;;;;5038406;28;20032;-65
2021/06/26 14:58:23;;;;;;;13.38;10.30;;;;;;;;;;5039003;28;20032;-65
2021/06/26 15:04:14;;;;;;;16.90;10.80;;;;;;;;;;5034086;28;20684;-64
2021/06/26 15:06:40;;;;;;;14.02;10.90;;;;;;;;;;5031969;28;20067;-66
2021/06/26 15:09:06;;;;;;;16.42;11.20;;;;;;;;;;5023635;28;20059;-65
2021/06/26 15:11:32;;;;;;;14.63;11.13;;;;;;;;;;5027729;28;20032;-65
2021/06/26 15:17:33;;;;;;;13.48;9.77;;;;;;;;;;5031786;28;20085;-65
2021/06/26 15:20:00;;;;;;;18.30;11.88;;;;;;;;;;5038170;28;20037;-64